createdAt,value
2022-11-05T00:03:17.175Z,12.73
2022-11-05T00:06:39.475Z,11.93
2022-11-05T00:09:42.101Z,13.75
2022-11-05T00:13:03.133Z,11.85
2022-11-05T00:16:40.758Z,13.23
2022-11-05T00:19:43.047Z,10.73
2022-11-05T00:23:05.125Z,11.35
2022-11-05T00:29:09.990Z,9.57
2022-11-05T00:32:12.295Z,10.68
2022-11-05T00:35:14.920Z,11.35
2022-11-05T00:38:18.533Z,12.57
2022-11-05T00:41:20.855Z,10.70
2022-11-05T00:44:41.868Z,10.95
2022-11-05T00:48:08.077Z,10.38
2022-11-05T00:51:10.451Z,10.63
2022-11-05T00:54:14.234Z,10.57
2022-11-05T00:57:16.444Z,9.65
2022-11-05T01:00:18.802Z,11.13
2022-11-05T01:03:22.914Z,10.55
2022-11-05T01:06:25.273Z,10.38
2022-11-05T01:09:28.835Z,10.82
2022-11-05T01:12:31.881Z,9.27
2022-11-05T01:15:35.574Z,11.00
2022-11-05T01:18:38.848Z,11.18
2022-11-05T01:21:41.171Z,11.00
2022-11-05T01:24:44.833Z,10.40
2022-11-05T01:27:47.149Z,12.52
2022-11-05T01:30:55.409Z,10.82
2022-11-05T01:33:57.629Z,10.65
2022-11-05T01:37:00.010Z,10.73
2022-11-05T01:40:04.208Z,11.23
2022-11-05T01:43:10.140Z,10.73
2022-11-05T01:46:12.784Z,10.70
2022-11-05T01:49:18.078Z,11.00
2022-11-05T01:52:21.876Z,10.75
2022-11-05T01:55:28.733Z,11.10
2022-11-05T01:58:32.764Z,11.43
2022-11-05T02:01:35.228Z,10.60
2022-11-05T02:04:40.372Z,11.15
2022-11-05T02:07:43.598Z,12.15
2022-11-05T02:10:48.659Z,11.15
2022-11-05T02:13:51.884Z,11.13
2022-11-05T02:16:58.525Z,11.88
2022-11-05T02:20:12.855Z,11.95
2022-11-05T02:23:39.912Z,11.13
2022-11-05T02:27:17.185Z,11.40
2022-11-05T02:30:27.610Z,12.18
2022-11-05T02:33:35.795Z,12.27
2022-11-05T02:36:43.915Z,11.65
2022-11-05T02:39:50.038Z,12.80
2022-11-05T02:42:58.014Z,12.00
2022-11-05T02:46:08.976Z,12.02
2022-11-05T02:49:19.763Z,11.80
2022-11-05T02:52:27.505Z,11.50
2022-11-05T02:55:33.664Z,12.00
2022-11-05T02:58:36.116Z,12.50
2022-11-05T03:01:40.185Z,12.18
2022-11-05T03:04:42.702Z,12.23
2022-11-05T03:07:50.396Z,12.43
2022-11-05T03:10:58.195Z,11.63
2022-11-05T03:14:08.103Z,10.95
2022-11-05T03:17:21.743Z,11.60
2022-11-05T03:20:27.951Z,11.07
2022-11-05T03:23:34.874Z,11.93
2022-11-05T03:26:40.429Z,11.23
2022-11-05T03:29:44.581Z,11.60
2022-11-05T03:32:51.165Z,12.48
2022-11-05T03:35:55.630Z,12.88
2022-11-05T03:39:01.730Z,11.02
2022-11-05T03:42:06.600Z,11.40
2022-11-05T03:45:11.019Z,11.75
2022-11-05T03:48:15.626Z,11.63
2022-11-05T03:51:23.389Z,12.63
2022-11-05T03:54:26.467Z,13.00
2022-11-05T03:57:31.556Z,12.25
2022-11-05T04:00:33.987Z,11.57
2022-11-05T04:03:37.713Z,11.75
2022-11-05T04:06:59.145Z,11.65
2022-11-05T04:10:20.215Z,12.50
2022-11-05T04:13:25.507Z,11.95
2022-11-05T04:16:46.373Z,13.27
2022-11-05T04:20:08.451Z,12.20
2022-11-05T04:26:31.366Z,12.35
2022-11-05T04:29:52.483Z,11.38
2022-11-05T04:32:57.062Z,12.10
2022-11-05T04:36:00.712Z,12.75
2022-11-05T04:39:04.140Z,12.18
2022-11-05T04:42:06.381Z,11.57
2022-11-05T04:45:08.853Z,11.18
2022-11-05T04:48:12.056Z,11.02
2022-11-05T04:51:15.690Z,10.57
2022-11-05T04:54:18.042Z,11.52
2022-11-05T04:57:20.285Z,11.43
2022-11-05T05:00:23.665Z,10.65
2022-11-05T05:03:25.978Z,11.45
2022-11-05T05:06:29.625Z,10.75
2022-11-05T05:09:31.908Z,10.85
2022-11-05T05:12:34.386Z,11.55
2022-11-05T05:15:37.631Z,11.07
2022-11-05T05:18:43.628Z,11.50
2022-11-05T05:21:49.846Z,10.80
2022-11-05T05:24:53.099Z,11.00
2022-11-05T05:27:56.803Z,10.82
2022-11-05T05:30:59.941Z,11.00
2022-11-05T05:34:02.394Z,11.73
2022-11-05T05:37:06.718Z,12.57
2022-11-05T05:40:10.137Z,11.38
2022-11-05T05:43:12.577Z,10.80
2022-11-05T05:46:16.874Z,11.32
2022-11-05T05:49:19.095Z,12.20
2022-11-05T05:52:22.704Z,10.85
2022-11-05T05:55:24.971Z,11.75
2022-11-05T05:58:32.331Z,11.70
2022-11-05T06:01:34.678Z,11.35
2022-11-05T06:04:37.037Z,12.77
2022-11-05T06:07:40.648Z,12.52
2022-11-05T06:10:43.037Z,12.27
2022-11-05T06:13:45.398Z,13.02
2022-11-05T06:16:48.236Z,12.43
2022-11-05T06:19:50.427Z,12.25
2022-11-05T06:22:57.136Z,12.05
2022-11-05T06:26:00.222Z,11.90
2022-11-05T06:29:02.481Z,11.30
2022-11-05T06:32:05.118Z,13.13
2022-11-05T06:35:08.020Z,13.10
2022-11-05T06:38:11.702Z,13.30
2022-11-05T06:41:14.273Z,12.00
2022-11-05T06:44:16.773Z,12.10
2022-11-05T06:47:19.581Z,12.60
2022-11-05T06:50:22.488Z,12.68
2022-11-05T06:53:26.276Z,12.90
2022-11-05T06:56:29.224Z,11.73
2022-11-05T06:59:31.577Z,11.23
2022-11-05T07:02:33.860Z,11.75
2022-11-05T07:05:38.740Z,10.63
2022-11-05T07:08:42.393Z,12.13
2022-11-05T07:11:44.657Z,9.40
2022-11-05T07:14:47.035Z,9.00
2022-11-05T07:17:49.462Z,9.68
2022-11-05T07:20:51.841Z,9.02
2022-11-05T07:23:55.454Z,9.05
2022-11-05T07:26:57.776Z,7.63
2022-11-05T07:30:00.058Z,8.55
2022-11-05T07:33:02.591Z,8.43
2022-11-05T07:36:05.582Z,9.05
2022-11-05T07:39:11.876Z,7.80
2022-11-05T07:42:14.177Z,9.13
2022-11-05T07:45:17.161Z,8.85
2022-11-05T07:48:19.439Z,8.65
2022-11-05T07:51:22.071Z,7.85
2022-11-05T07:54:26.748Z,7.97
2022-11-05T07:57:29.053Z,7.97
2022-11-05T08:00:31.419Z,8.27
2022-11-05T08:03:34.214Z,8.18
2022-11-05T08:06:36.742Z,7.00
2022-11-05T08:09:40.527Z,7.70
2022-11-05T08:12:42.933Z,7.13
2022-11-05T08:15:45.390Z,7.43
2022-11-05T08:18:48.330Z,7.07
2022-11-05T08:21:50.621Z,6.88
2022-11-05T08:24:54.323Z,6.30
2022-11-05T08:27:57.511Z,7.47
2022-11-05T08:30:59.880Z,6.57
2022-11-05T08:34:02.832Z,6.35
2022-11-05T08:37:05.256Z,5.97
2022-11-05T08:40:10.344Z,5.95
2022-11-05T08:43:14.575Z,5.10
2022-11-05T08:46:17.115Z,6.30
2022-11-05T08:49:19.446Z,5.80
2022-11-05T08:52:21.687Z,6.68
2022-11-05T08:55:25.716Z,5.15
2022-11-05T08:58:28.105Z,4.97
2022-11-05T09:01:30.732Z,4.72
2022-11-05T09:04:33.197Z,4.63
2022-11-05T09:07:35.426Z,4.57
2022-11-05T09:10:39.804Z,4.93
2022-11-05T09:13:42.350Z,4.03
2022-11-05T09:16:44.659Z,3.83
2022-11-05T09:19:47.281Z,3.35
2022-11-05T09:22:49.529Z,3.50
2022-11-05T09:25:53.133Z,3.55
2022-11-05T09:28:55.604Z,3.67
2022-11-05T09:31:57.898Z,3.20
2022-11-05T09:35:01.152Z,3.42
2022-11-05T09:38:03.635Z,2.85
2022-11-05T09:41:09.034Z,2.60
2022-11-05T09:44:15.680Z,2.75
2022-11-05T09:47:20.610Z,3.05
2022-11-05T09:50:26.200Z,2.95
2022-11-05T09:53:28.713Z,3.03
2022-11-05T09:56:34.843Z,2.47
2022-11-05T09:59:41.936Z,2.13
2022-11-05T10:02:48.970Z,2.45
2022-11-05T10:05:55.283Z,2.50
2022-11-05T10:09:03.251Z,2.75
2022-11-05T10:12:12.240Z,2.60
2022-11-05T10:15:21.184Z,2.83
2022-11-05T10:18:27.183Z,2.63
2022-11-05T10:21:59.454Z,2.15
2022-11-05T10:24:52.508Z,2.20
2022-11-05T10:27:57.266Z,1.42
2022-11-05T10:31:01.834Z,2.15
2022-11-05T10:34:07.586Z,1.58
2022-11-05T10:37:10.350Z,1.75
2022-11-05T10:40:30.097Z,1.95
2022-11-05T10:43:39.051Z,2.00
2022-11-05T10:46:46.686Z,1.77
2022-11-05T10:49:57.983Z,1.90
2022-11-05T10:53:03.016Z,1.63
2022-11-05T10:56:28.711Z,1.90
2022-11-05T10:59:32.349Z,1.52
2022-11-05T11:02:35.529Z,1.10
2022-11-05T11:05:39.551Z,2.35
2022-11-05T11:08:44.551Z,1.38
2022-11-05T11:11:55.596Z,0.98
2022-11-05T11:15:03.298Z,1.30
2022-11-05T11:18:25.566Z,1.25
2022-11-05T11:21:29.472Z,1.17
2022-11-05T11:24:37.988Z,1.20
2022-11-05T11:27:40.179Z,1.30
2022-11-05T11:30:49.350Z,1.23
2022-11-05T11:33:55.644Z,2.03
2022-11-05T11:37:04.530Z,1.00
2022-11-05T11:40:15.026Z,1.00
2022-11-05T11:43:26.028Z,1.05
2022-11-05T11:46:31.805Z,0.70
2022-11-05T11:49:40.749Z,0.90
2022-11-05T11:52:43.062Z,0.80
2022-11-05T11:55:58.250Z,0.80
2022-11-05T11:59:13.188Z,0.70
2022-11-05T12:02:40.948Z,0.77
2022-11-05T12:05:47.881Z,0.75
2022-11-05T12:09:02.011Z,1.00
2022-11-05T12:12:13.178Z,0.70
2022-11-05T12:15:28.327Z,0.68
2022-11-05T12:18:36.630Z,0.80
2022-11-05T12:21:59.181Z,0.70
2022-11-05T12:25:15.887Z,1.00
2022-11-05T12:28:34.002Z,0.68
2022-11-05T12:31:43.299Z,0.60
2022-11-05T12:34:56.942Z,0.80
2022-11-05T12:38:07.105Z,0.60
2022-11-05T12:41:17.002Z,0.90
2022-11-05T12:44:34.180Z,0.80
2022-11-05T12:47:48.215Z,0.68
2022-11-05T12:50:55.815Z,1.10
2022-11-05T12:54:11.946Z,0.47
2022-11-05T12:57:18.089Z,0.80
2022-11-05T13:00:22.035Z,0.70
2022-11-05T13:03:38.084Z,0.68
2022-11-05T13:06:53.821Z,0.70
2022-11-05T13:09:59.630Z,1.02
2022-11-05T13:13:06.508Z,0.80
2022-11-05T13:16:12.734Z,1.10
2022-11-05T13:19:22.775Z,0.93
2022-11-05T13:22:34.333Z,1.30
2022-11-05T13:25:40.739Z,0.98
2022-11-05T13:28:47.493Z,0.98
2022-11-05T13:31:52.145Z,1.10
2022-11-05T13:34:57.183Z,1.00
2022-11-05T13:38:23.034Z,0.90
2022-11-05T13:41:31.128Z,0.85
2022-11-05T13:45:08.554Z,0.88
2022-11-05T13:48:41.866Z,0.73
2022-11-05T13:51:49.713Z,1.10
2022-11-05T13:55:24.958Z,0.55
2022-11-05T13:58:56.723Z,0.60
2022-11-05T14:02:00.868Z,1.20
2022-11-05T14:05:06.596Z,0.60
2022-11-05T14:08:10.784Z,0.80
2022-11-05T14:11:20.935Z,1.33
2022-11-05T14:14:26.817Z,1.33
2022-11-05T14:17:33.656Z,1.08
2022-11-05T14:20:46.336Z,0.70
2022-11-05T14:23:52.841Z,1.10
2022-11-05T14:27:45.026Z,1.00
2022-11-05T14:30:47.551Z,1.20
2022-11-05T14:33:56.397Z,1.25
2022-11-05T14:37:27.296Z,1.35
2022-11-05T14:40:33.797Z,1.15
2022-11-05T14:43:42.361Z,1.30
2022-11-05T14:46:46.723Z,1.67
2022-11-05T14:49:53.074Z,1.10
2022-11-05T14:52:58.218Z,1.25
2022-11-05T14:56:04.202Z,1.55
2022-11-05T14:59:35.274Z,1.25
2022-11-05T15:02:38.886Z,1.13
2022-11-05T15:05:56.619Z,1.20
2022-11-05T15:09:24.326Z,1.25
2022-11-05T15:12:32.686Z,1.00
2022-11-05T15:15:43.409Z,1.00
2022-11-05T15:18:48.226Z,1.40
2022-11-05T15:21:51.444Z,1.20
2022-11-05T15:25:01.180Z,1.20
2022-11-05T15:28:06.135Z,1.00
2022-11-05T15:31:26.867Z,1.05
2022-11-05T15:34:31.673Z,1.23
2022-11-05T15:37:34.122Z,1.15
2022-11-05T15:40:36.524Z,1.10
2022-11-05T15:43:47.685Z,1.20
2022-11-05T15:47:05.270Z,1.42
2022-11-05T15:50:14.929Z,1.38
2022-11-05T15:53:47.488Z,1.30
2022-11-05T15:56:50.679Z,1.10
2022-11-05T15:59:53.324Z,1.83
2022-11-05T16:02:58.830Z,1.10
2022-11-05T16:06:01.624Z,1.30
2022-11-05T16:09:04.402Z,1.50
2022-11-05T16:12:20.380Z,2.13
2022-11-05T16:15:24.985Z,1.77
2022-11-05T16:18:32.914Z,2.47
2022-11-05T16:22:03.903Z,2.40
2022-11-05T16:25:27.113Z,2.40
2022-11-05T16:28:30.351Z,3.15
2022-11-05T16:31:32.844Z,2.72
2022-11-05T16:34:39.103Z,1.80
2022-11-05T16:37:46.324Z,2.67
2022-11-05T16:40:51.698Z,2.00
2022-11-05T16:43:55.839Z,1.88
2022-11-05T16:46:58.242Z,2.47
2022-11-05T16:50:02.958Z,1.95
2022-11-05T16:53:05.194Z,1.90
2022-11-05T16:56:13.021Z,1.63
2022-11-05T16:59:15.586Z,2.08
2022-11-05T17:02:18.835Z,2.30
2022-11-05T17:05:27.684Z,2.67
2022-11-05T17:08:31.621Z,3.08
2022-11-05T17:11:34.222Z,2.20
2022-11-05T17:14:36.717Z,2.30
2022-11-05T17:17:39.012Z,2.30
2022-11-05T17:20:44.753Z,2.00
2022-11-05T17:23:47.199Z,2.60
2022-11-05T17:26:49.760Z,2.30
2022-11-05T17:29:52.260Z,2.45
2022-11-05T17:32:54.665Z,3.15
2022-11-05T17:36:05.710Z,4.35
2022-11-05T17:39:08.299Z,2.93
2022-11-05T17:42:10.515Z,3.00
2022-11-05T17:45:14.596Z,3.55
2022-11-05T17:48:17.259Z,3.70
2022-11-05T17:51:21.354Z,3.92
2022-11-05T17:54:24.615Z,4.47
2022-11-05T17:57:28.565Z,3.70
2022-11-05T18:00:31.132Z,4.43
2022-11-05T18:03:33.669Z,4.07
2022-11-05T18:06:40.560Z,4.35
2022-11-05T18:09:42.920Z,4.50
2022-11-05T18:12:45.765Z,3.75
2022-11-05T18:15:51.718Z,3.83
2022-11-05T18:18:54.102Z,5.35
2022-11-05T18:21:57.705Z,4.07
2022-11-05T18:24:59.896Z,3.95
2022-11-05T18:28:02.997Z,3.88
2022-11-05T18:31:08.353Z,4.30
2022-11-05T18:34:11.281Z,3.88
2022-11-05T18:37:15.473Z,4.60
2022-11-05T18:40:20.241Z,4.57
2022-11-05T18:43:22.793Z,4.55
2022-11-05T18:46:51.660Z,4.25
2022-11-05T18:49:47.384Z,5.68
2022-11-05T18:52:51.112Z,5.15
2022-11-05T18:55:54.642Z,4.85
2022-11-05T18:59:21.863Z,6.03
2022-11-05T19:02:19.729Z,5.97
2022-11-05T19:05:29.028Z,5.60
2022-11-05T19:08:34.395Z,5.90
2022-11-05T19:11:36.649Z,6.13
2022-11-05T19:14:38.947Z,6.57
2022-11-05T19:17:41.218Z,5.65
2022-11-05T19:20:43.511Z,5.75
2022-11-05T19:23:47.278Z,5.57
2022-11-05T19:26:50.350Z,5.68
2022-11-05T19:29:52.691Z,6.72
2022-11-05T19:32:55.708Z,5.90
2022-11-05T19:35:57.929Z,6.03
2022-11-05T19:39:04.403Z,5.47
2022-11-05T19:42:07.089Z,6.15
2022-11-05T19:45:38.221Z,5.28
2022-11-05T19:48:32.806Z,5.32
2022-11-05T19:51:35.362Z,4.72
2022-11-05T19:54:42.268Z,5.00
2022-11-05T19:57:45.217Z,4.78
2022-11-05T20:00:50.539Z,5.65
2022-11-05T20:03:54.091Z,4.85
2022-11-05T20:06:56.410Z,4.50
2022-11-05T20:10:00.006Z,5.82
2022-11-05T20:13:02.514Z,5.68
2022-11-05T20:16:05.622Z,5.25
2022-11-05T20:19:10.270Z,6.55
2022-11-05T20:22:12.633Z,5.97
2022-11-05T20:25:16.623Z,6.30
2022-11-05T20:28:18.904Z,5.88
2022-11-05T20:31:24.139Z,6.10
2022-11-05T20:34:28.857Z,6.22
2022-11-05T20:37:31.123Z,5.90
2022-11-05T20:40:34.787Z,6.88
2022-11-05T20:43:37.933Z,6.43
2022-11-05T20:46:40.197Z,7.00
2022-11-05T20:49:42.733Z,5.85
2022-11-05T20:52:44.942Z,5.88
2022-11-05T20:55:48.682Z,5.78
2022-11-05T20:58:51.471Z,5.70
2022-11-05T21:01:53.823Z,5.97
2022-11-05T21:04:59.196Z,7.18
2022-11-05T21:08:01.684Z,5.90
2022-11-05T21:11:05.568Z,6.72
2022-11-05T21:14:07.899Z,6.18
2022-11-05T21:17:11.887Z,6.75
2022-11-05T21:20:14.123Z,6.50
2022-11-05T21:23:16.953Z,5.95
2022-11-05T21:26:20.614Z,5.75
2022-11-05T21:29:22.990Z,5.72
2022-11-05T21:32:25.253Z,5.90
2022-11-05T21:35:27.526Z,5.50
2022-11-05T21:38:29.925Z,5.25
2022-11-05T21:41:33.821Z,5.15
2022-11-05T21:44:36.356Z,5.60
2022-11-05T21:47:38.949Z,4.72
2022-11-05T21:51:02.729Z,4.45
2022-11-05T21:54:23.564Z,4.70
2022-11-05T21:57:46.031Z,5.15
2022-11-05T22:00:48.591Z,5.53
2022-11-05T22:03:51.535Z,4.68
2022-11-05T22:06:53.838Z,5.15
2022-11-05T22:09:56.525Z,5.18
2022-11-05T22:13:01.424Z,5.57
2022-11-05T22:16:03.934Z,4.18
2022-11-05T22:19:06.500Z,4.38
2022-11-05T22:22:12.385Z,4.63
2022-11-05T22:25:15.706Z,4.63
2022-11-05T22:28:20.308Z,5.35
2022-11-05T22:31:23.181Z,4.70
2022-11-05T22:34:26.016Z,4.38
2022-11-05T22:37:28.369Z,4.78
2022-11-05T22:40:30.555Z,5.25
2022-11-05T22:43:35.583Z,5.10
2022-11-05T22:46:38.513Z,5.30
2022-11-05T22:49:43.497Z,4.75
2022-11-05T22:52:46.078Z,5.50
2022-11-05T22:55:48.561Z,4.80
2022-11-05T22:58:53.893Z,4.55
2022-11-05T23:01:56.489Z,4.22
2022-11-05T23:04:58.954Z,3.42
2022-11-05T23:08:20.264Z,3.88
2022-11-05T23:11:35.709Z,3.73
2022-11-05T23:14:41.692Z,3.50
2022-11-05T23:18:04.560Z,3.47
2022-11-05T23:21:25.747Z,3.90
2022-11-05T23:24:28.318Z,3.25
2022-11-05T23:27:34.485Z,3.10
2022-11-05T23:31:04.093Z,3.22
2022-11-05T23:34:06.304Z,2.70
2022-11-05T23:37:28.096Z,2.90
2022-11-05T23:40:51.696Z,2.55
2022-11-05T23:44:12.879Z,2.38
2022-11-05T23:47:35.093Z,2.42
2022-11-05T23:50:39.988Z,2.65
2022-11-05T23:53:42.595Z,2.65
2022-11-05T23:56:45.813Z,2.20
2022-11-05T23:59:48.233Z,3.22
